sensor_id;sensor_type;location;lat;lon;timestamp;temperature;humidity
37844;DHT22;63793;57.632;18.292;2023-12-04T00:00:32;-1.00;99.90
37844;DHT22;63793;57.632;18.292;2023-12-04T00:02:59;-1.00;99.90
37844;DHT22;63793;57.632;18.292;2023-12-04T00:05:26;-1.00;99.90
37844;DHT22;63793;57.632;18.292;2023-12-04T00:07:53;-1.00;99.90
37844;DHT22;63793;57.632;18.292;2023-12-04T00:10:20;-1.00;99.90
37844;DHT22;63793;57.632;18.292;2023-12-04T00:12:46;-1.00;99.90
37844;DHT22;63793;57.632;18.292;2023-12-04T00:15:13;-0.90;99.90
37844;DHT22;63793;57.632;18.292;2023-12-04T00:17:40;-1.00;99.90
37844;DHT22;63793;57.632;18.292;2023-12-04T00:20:07;-1.00;99.90
37844;DHT22;63793;57.632;18.292;2023-12-04T00:22:36;-1.00;99.90
37844;DHT22;63793;57.632;18.292;2023-12-04T00:25:03;-1.00;99.90
37844;DHT22;63793;57.632;18.292;2023-12-04T00:27:30;-1.00;99.90
37844;DHT22;63793;57.632;18.292;2023-12-04T00:29:57;-1.00;99.90
37844;DHT22;63793;57.632;18.292;2023-12-04T00:32:24;-1.00;99.90
37844;DHT22;63793;57.632;18.292;2023-12-04T00:34:51;-1.00;99.90
37844;DHT22;63793;57.632;18.292;2023-12-04T00:37:18;-1.00;99.90
37844;DHT22;63793;57.632;18.292;2023-12-04T00:39:45;-1.00;99.90
37844;DHT22;63793;57.632;18.292;2023-12-04T00:42:11;-1.00;99.90
37844;DHT22;63793;57.632;18.292;2023-12-04T00:44:38;-1.10;99.90
37844;DHT22;63793;57.632;18.292;2023-12-04T00:47:05;-1.10;99.90
37844;DHT22;63793;57.632;18.292;2023-12-04T00:49:32;-1.10;99.90
37844;DHT22;63793;57.632;18.292;2023-12-04T00:51:59;-1.10;99.90
37844;DHT22;63793;57.632;18.292;2023-12-04T00:54:26;-1.20;99.90
37844;DHT22;63793;57.632;18.292;2023-12-04T00:56:53;-1.20;99.90
37844;DHT22;63793;57.632;18.292;2023-12-04T00:59:19;-1.20;99.90
37844;DHT22;63793;57.632;18.292;2023-12-04T01:01:46;-1.20;99.90
37844;DHT22;63793;57.632;18.292;2023-12-04T01:04:13;-1.20;99.90
37844;DHT22;63793;57.632;18.292;2023-12-04T01:06:40;-1.30;99.90
37844;DHT22;63793;57.632;18.292;2023-12-04T01:09:06;-1.30;99.90
37844;DHT22;63793;57.632;18.292;2023-12-04T01:11:33;-1.30;99.90
37844;DHT22;63793;57.632;18.292;2023-12-04T01:14:00;-1.30;99.90
37844;DHT22;63793;57.632;18.292;2023-12-04T01:16:27;-1.40;99.90
37844;DHT22;63793;57.632;18.292;2023-12-04T01:18:55;-1.40;99.90
37844;DHT22;63793;57.632;18.292;2023-12-04T01:21:22;-1.40;99.90
37844;DHT22;63793;57.632;18.292;2023-12-04T01:23:49;-1.50;99.90
37844;DHT22;63793;57.632;18.292;2023-12-04T01:26:16;-1.50;99.90
37844;DHT22;63793;57.632;18.292;2023-12-04T01:28:43;-1.50;99.90
37844;DHT22;63793;57.632;18.292;2023-12-04T01:31:10;-1.50;99.90
37844;DHT22;63793;57.632;18.292;2023-12-04T01:33:36;-1.50;99.90
37844;DHT22;63793;57.632;18.292;2023-12-04T01:36:03;-1.50;99.90
37844;DHT22;63793;57.632;18.292;2023-12-04T01:38:30;-1.50;99.90
37844;DHT22;63793;57.632;18.292;2023-12-04T01:40:57;-1.60;99.90
37844;DHT22;63793;57.632;18.292;2023-12-04T01:43:24;-1.60;99.90
37844;DHT22;63793;57.632;18.292;2023-12-04T01:45:51;-1.60;99.90
37844;DHT22;63793;57.632;18.292;2023-12-04T01:48:18;-1.60;99.90
37844;DHT22;63793;57.632;18.292;2023-12-04T01:50:45;-1.60;99.90
37844;DHT22;63793;57.632;18.292;2023-12-04T01:53:12;-1.60;99.90
37844;DHT22;63793;57.632;18.292;2023-12-04T01:55:39;-1.60;99.90
37844;DHT22;63793;57.632;18.292;2023-12-04T01:58:07;-1.60;99.90
37844;DHT22;63793;57.632;18.292;2023-12-04T02:00:34;-1.60;99.90
37844;DHT22;63793;57.632;18.292;2023-12-04T02:03:01;-1.60;99.90
37844;DHT22;63793;57.632;18.292;2023-12-04T02:05:28;-1.60;99.90
37844;DHT22;63793;57.632;18.292;2023-12-04T02:07:56;-1.60;99.90
37844;DHT22;63793;57.632;18.292;2023-12-04T02:10:23;-1.60;99.90
37844;DHT22;63793;57.632;18.292;2023-12-04T02:12:50;-1.60;99.90
37844;DHT22;63793;57.632;18.292;2023-12-04T02:15:17;-1.60;99.90
37844;DHT22;63793;57.632;18.292;2023-12-04T02:17:44;-1.70;99.90
37844;DHT22;63793;57.632;18.292;2023-12-04T02:20:14;-1.70;99.90
37844;DHT22;63793;57.632;18.292;2023-12-04T02:22:41;-1.70;99.90
37844;DHT22;63793;57.632;18.292;2023-12-04T02:25:08;-1.70;99.90
37844;DHT22;63793;57.632;18.292;2023-12-04T02:27:49;-1.70;99.90
37844;DHT22;63793;57.632;18.292;2023-12-04T02:30:17;-1.70;99.90
37844;DHT22;63793;57.632;18.292;2023-12-04T02:32:45;-1.70;99.90
37844;DHT22;63793;57.632;18.292;2023-12-04T02:35:12;-1.70;99.90
37844;DHT22;63793;57.632;18.292;2023-12-04T02:37:40;-1.70;99.90
37844;DHT22;63793;57.632;18.292;2023-12-04T02:40:07;-1.70;99.90
37844;DHT22;63793;57.632;18.292;2023-12-04T02:42:34;-1.70;99.90
37844;DHT22;63793;57.632;18.292;2023-12-04T02:45:01;-1.70;99.90
37844;DHT22;63793;57.632;18.292;2023-12-04T02:47:28;-1.70;99.90
37844;DHT22;63793;57.632;18.292;2023-12-04T02:49:55;-1.70;99.90
37844;DHT22;63793;57.632;18.292;2023-12-04T02:52:22;-1.70;99.90
37844;DHT22;63793;57.632;18.292;2023-12-04T02:54:48;-1.70;99.90
37844;DHT22;63793;57.632;18.292;2023-12-04T02:57:15;-1.70;99.90
37844;DHT22;63793;57.632;18.292;2023-12-04T02:59:42;-1.70;99.90
37844;DHT22;63793;57.632;18.292;2023-12-04T03:02:09;-1.70;99.90
37844;DHT22;63793;57.632;18.292;2023-12-04T03:04:36;-1.70;99.90
37844;DHT22;63793;57.632;18.292;2023-12-04T03:07:02;-1.70;99.90
37844;DHT22;63793;57.632;18.292;2023-12-04T03:09:29;-1.70;99.90
37844;DHT22;63793;57.632;18.292;2023-12-04T03:12:15;-1.80;99.90
37844;DHT22;63793;57.632;18.292;2023-12-04T03:14:42;-1.80;99.90
37844;DHT22;63793;57.632;18.292;2023-12-04T03:17:08;-1.70;99.90
37844;DHT22;63793;57.632;18.292;2023-12-04T03:19:35;-1.80;99.90
37844;DHT22;63793;57.632;18.292;2023-12-04T03:22:02;-1.70;99.90
37844;DHT22;63793;57.632;18.292;2023-12-04T03:24:29;-1.70;99.90
37844;DHT22;63793;57.632;18.292;2023-12-04T03:26:56;-1.80;99.90
37844;DHT22;63793;57.632;18.292;2023-12-04T03:29:23;-1.80;99.90
37844;DHT22;63793;57.632;18.292;2023-12-04T03:31:51;-1.90;99.90
37844;DHT22;63793;57.632;18.292;2023-12-04T03:34:18;-1.90;99.90
37844;DHT22;63793;57.632;18.292;2023-12-04T03:36:44;-1.90;99.90
37844;DHT22;63793;57.632;18.292;2023-12-04T03:39:11;-1.90;99.90
37844;DHT22;63793;57.632;18.292;2023-12-04T03:41:38;-1.90;99.90
37844;DHT22;63793;57.632;18.292;2023-12-04T03:44:05;-1.90;99.90
37844;DHT22;63793;57.632;18.292;2023-12-04T03:46:32;-2.00;99.90
37844;DHT22;63793;57.632;18.292;2023-12-04T03:48:59;-1.90;99.90
37844;DHT22;63793;57.632;18.292;2023-12-04T03:51:26;-2.00;99.90
37844;DHT22;63793;57.632;18.292;2023-12-04T03:53:52;-2.00;99.90
37844;DHT22;63793;57.632;18.292;2023-12-04T03:56:19;-2.00;99.90
37844;DHT22;63793;57.632;18.292;2023-12-04T03:58:46;-2.00;99.90
37844;DHT22;63793;57.632;18.292;2023-12-04T04:01:13;-2.00;99.90
37844;DHT22;63793;57.632;18.292;2023-12-04T04:03:40;-2.10;99.90
37844;DHT22;63793;57.632;18.292;2023-12-04T04:06:11;-2.10;99.90
37844;DHT22;63793;57.632;18.292;2023-12-04T04:08:38;-2.00;99.90
37844;DHT22;63793;57.632;18.292;2023-12-04T04:11:05;-2.00;99.90
37844;DHT22;63793;57.632;18.292;2023-12-04T04:13:32;-2.10;99.90
37844;DHT22;63793;57.632;18.292;2023-12-04T04:15:59;-2.10;99.90
37844;DHT22;63793;57.632;18.292;2023-12-04T04:18:25;-2.10;99.90
37844;DHT22;63793;57.632;18.292;2023-12-04T04:20:52;-2.10;99.90
37844;DHT22;63793;57.632;18.292;2023-12-04T04:23:19;-2.10;99.90
37844;DHT22;63793;57.632;18.292;2023-12-04T04:25:46;-2.10;99.90
37844;DHT22;63793;57.632;18.292;2023-12-04T04:28:13;-2.10;99.90
37844;DHT22;63793;57.632;18.292;2023-12-04T04:30:39;-2.20;99.90
37844;DHT22;63793;57.632;18.292;2023-12-04T04:33:06;-2.10;99.90
37844;DHT22;63793;57.632;18.292;2023-12-04T04:35:33;-2.10;99.90
37844;DHT22;63793;57.632;18.292;2023-12-04T04:38:00;-2.10;99.90
37844;DHT22;63793;57.632;18.292;2023-12-04T04:40:27;-2.20;99.90
37844;DHT22;63793;57.632;18.292;2023-12-04T04:42:54;-2.20;99.90
37844;DHT22;63793;57.632;18.292;2023-12-04T04:45:21;-2.20;99.90
37844;DHT22;63793;57.632;18.292;2023-12-04T04:47:47;-2.20;99.90
37844;DHT22;63793;57.632;18.292;2023-12-04T04:50:14;-2.30;99.90
37844;DHT22;63793;57.632;18.292;2023-12-04T04:52:41;-2.30;99.90
37844;DHT22;63793;57.632;18.292;2023-12-04T04:55:08;-2.30;99.90
37844;DHT22;63793;57.632;18.292;2023-12-04T04:57:35;-2.30;99.90
37844;DHT22;63793;57.632;18.292;2023-12-04T05:00:01;-2.30;99.90
37844;DHT22;63793;57.632;18.292;2023-12-04T05:02:28;-2.30;99.90
37844;DHT22;63793;57.632;18.292;2023-12-04T05:04:55;-2.30;99.90
37844;DHT22;63793;57.632;18.292;2023-12-04T05:07:22;-2.30;99.90
37844;DHT22;63793;57.632;18.292;2023-12-04T05:09:49;-2.30;99.90
37844;DHT22;63793;57.632;18.292;2023-12-04T05:12:16;-2.40;99.90
37844;DHT22;63793;57.632;18.292;2023-12-04T05:14:42;-2.40;99.90
37844;DHT22;63793;57.632;18.292;2023-12-04T05:17:09;-2.40;99.90
37844;DHT22;63793;57.632;18.292;2023-12-04T05:19:36;-2.40;99.90
37844;DHT22;63793;57.632;18.292;2023-12-04T05:22:03;-2.40;99.90
37844;DHT22;63793;57.632;18.292;2023-12-04T05:24:30;-2.40;99.90
37844;DHT22;63793;57.632;18.292;2023-12-04T05:26:57;-2.40;99.90
37844;DHT22;63793;57.632;18.292;2023-12-04T05:29:24;-2.40;99.90
37844;DHT22;63793;57.632;18.292;2023-12-04T05:31:51;-2.40;99.90
37844;DHT22;63793;57.632;18.292;2023-12-04T05:34:18;-2.40;99.90
37844;DHT22;63793;57.632;18.292;2023-12-04T06:46:00;-2.70;99.90
37844;DHT22;63793;57.632;18.292;2023-12-04T06:48:27;-2.70;99.90
37844;DHT22;63793;57.632;18.292;2023-12-04T06:50:53;-2.70;99.90
37844;DHT22;63793;57.632;18.292;2023-12-04T06:53:20;-2.80;99.90
37844;DHT22;63793;57.632;18.292;2023-12-04T06:55:47;-2.80;99.90
37844;DHT22;63793;57.632;18.292;2023-12-04T06:58:14;-2.80;99.90
37844;DHT22;63793;57.632;18.292;2023-12-04T07:00:41;-2.80;99.90
37844;DHT22;63793;57.632;18.292;2023-12-04T07:03:08;-2.80;99.90
37844;DHT22;63793;57.632;18.292;2023-12-04T07:05:34;-2.80;99.90
37844;DHT22;63793;57.632;18.292;2023-12-04T07:08:01;-2.80;99.90
37844;DHT22;63793;57.632;18.292;2023-12-04T07:10:29;-2.80;99.90
37844;DHT22;63793;57.632;18.292;2023-12-04T07:13:00;-2.80;99.90
37844;DHT22;63793;57.632;18.292;2023-12-04T07:15:27;-2.80;99.90
37844;DHT22;63793;57.632;18.292;2023-12-04T07:17:54;-2.90;99.90
37844;DHT22;63793;57.632;18.292;2023-12-04T07:20:23;-2.90;99.90
37844;DHT22;63793;57.632;18.292;2023-12-04T07:22:51;-2.90;99.90
37844;DHT22;63793;57.632;18.292;2023-12-04T07:25:18;-2.90;99.90
37844;DHT22;63793;57.632;18.292;2023-12-04T07:27:45;-2.90;99.90
37844;DHT22;63793;57.632;18.292;2023-12-04T07:30:12;-2.90;99.90
37844;DHT22;63793;57.632;18.292;2023-12-04T07:32:43;-2.90;99.90
37844;DHT22;63793;57.632;18.292;2023-12-04T07:35:10;-3.00;99.90
37844;DHT22;63793;57.632;18.292;2023-12-04T07:37:36;-3.00;99.90
37844;DHT22;63793;57.632;18.292;2023-12-04T07:40:04;-3.00;99.90
37844;DHT22;63793;57.632;18.292;2023-12-04T07:42:32;-3.10;99.90
37844;DHT22;63793;57.632;18.292;2023-12-04T07:44:59;-3.10;99.90
37844;DHT22;63793;57.632;18.292;2023-12-04T07:47:26;-3.00;99.90
37844;DHT22;63793;57.632;18.292;2023-12-04T07:49:53;-3.00;99.90
37844;DHT22;63793;57.632;18.292;2023-12-04T07:52:20;-3.00;99.90
37844;DHT22;63793;57.632;18.292;2023-12-04T07:54:47;-3.00;99.90
37844;DHT22;63793;57.632;18.292;2023-12-04T07:57:14;-3.10;99.90
37844;DHT22;63793;57.632;18.292;2023-12-04T07:59:41;-3.10;99.90
37844;DHT22;63793;57.632;18.292;2023-12-04T08:02:09;-3.20;99.90
37844;DHT22;63793;57.632;18.292;2023-12-04T08:04:35;-3.20;99.90
37844;DHT22;63793;57.632;18.292;2023-12-04T08:07:03;-3.20;99.90
37844;DHT22;63793;57.632;18.292;2023-12-04T08:09:29;-3.20;99.90
37844;DHT22;63793;57.632;18.292;2023-12-04T08:11:56;-3.20;99.90
37844;DHT22;63793;57.632;18.292;2023-12-04T08:14:24;-3.20;99.90
37844;DHT22;63793;57.632;18.292;2023-12-04T08:16:50;-3.20;99.90
37844;DHT22;63793;57.632;18.292;2023-12-04T08:19:17;-3.20;99.90
37844;DHT22;63793;57.632;18.292;2023-12-04T08:21:45;-3.30;99.90
37844;DHT22;63793;57.632;18.292;2023-12-04T08:24:13;-3.30;99.90
37844;DHT22;63793;57.632;18.292;2023-12-04T08:26:39;-3.20;99.90
37844;DHT22;63793;57.632;18.292;2023-12-04T08:29:06;-3.20;99.90
37844;DHT22;63793;57.632;18.292;2023-12-04T08:31:33;-3.20;99.90
37844;DHT22;63793;57.632;18.292;2023-12-04T08:34:00;-3.20;99.90
37844;DHT22;63793;57.632;18.292;2023-12-04T08:36:27;-3.20;99.90
37844;DHT22;63793;57.632;18.292;2023-12-04T08:39:10;-3.20;99.90
37844;DHT22;63793;57.632;18.292;2023-12-04T08:41:36;-3.20;99.90
37844;DHT22;63793;57.632;18.292;2023-12-04T08:44:07;-3.20;99.90
37844;DHT22;63793;57.632;18.292;2023-12-04T08:46:33;-3.10;99.90
37844;DHT22;63793;57.632;18.292;2023-12-04T08:49:00;-3.20;99.90
37844;DHT22;63793;57.632;18.292;2023-12-04T08:51:27;-3.20;99.90
37844;DHT22;63793;57.632;18.292;2023-12-04T08:53:54;-3.30;99.90
37844;DHT22;63793;57.632;18.292;2023-12-04T08:56:21;-3.20;99.90
37844;DHT22;63793;57.632;18.292;2023-12-04T08:58:56;-3.30;99.90
37844;DHT22;63793;57.632;18.292;2023-12-04T09:01:24;-3.20;99.90
37844;DHT22;63793;57.632;18.292;2023-12-04T09:03:52;-3.20;99.90
37844;DHT22;63793;57.632;18.292;2023-12-04T09:06:19;-3.20;99.90
37844;DHT22;63793;57.632;18.292;2023-12-04T09:09:05;-3.20;99.90
37844;DHT22;63793;57.632;18.292;2023-12-04T09:11:41;-3.20;99.90
37844;DHT22;63793;57.632;18.292;2023-12-04T09:14:09;-3.20;99.90
37844;DHT22;63793;57.632;18.292;2023-12-04T09:16:36;-3.20;99.90
37844;DHT22;63793;57.632;18.292;2023-12-04T09:19:03;-3.30;99.90
37844;DHT22;63793;57.632;18.292;2023-12-04T09:21:30;-3.20;99.90
37844;DHT22;63793;57.632;18.292;2023-12-04T09:23:57;-3.20;99.90
37844;DHT22;63793;57.632;18.292;2023-12-04T09:26:24;-3.20;99.90
37844;DHT22;63793;57.632;18.292;2023-12-04T09:28:51;-3.20;99.90
37844;DHT22;63793;57.632;18.292;2023-12-04T09:31:19;-3.10;99.90
37844;DHT22;63793;57.632;18.292;2023-12-04T09:33:46;-3.10;99.90
37844;DHT22;63793;57.632;18.292;2023-12-04T09:36:14;-3.10;99.90
37844;DHT22;63793;57.632;18.292;2023-12-04T09:38:41;-3.10;99.90
37844;DHT22;63793;57.632;18.292;2023-12-04T09:41:08;-3.10;99.90
37844;DHT22;63793;57.632;18.292;2023-12-04T09:43:37;-3.10;99.90
37844;DHT22;63793;57.632;18.292;2023-12-04T09:46:04;-3.10;99.90
37844;DHT22;63793;57.632;18.292;2023-12-04T09:48:31;-3.10;99.90
37844;DHT22;63793;57.632;18.292;2023-12-04T09:50:59;-3.10;99.90
37844;DHT22;63793;57.632;18.292;2023-12-04T09:53:26;-3.20;99.90
37844;DHT22;63793;57.632;18.292;2023-12-04T09:55:53;-3.20;99.90
37844;DHT22;63793;57.632;18.292;2023-12-04T09:58:23;-3.20;99.90
37844;DHT22;63793;57.632;18.292;2023-12-04T10:00:53;-3.20;99.90
37844;DHT22;63793;57.632;18.292;2023-12-04T10:03:21;-3.20;99.90
37844;DHT22;63793;57.632;18.292;2023-12-04T10:05:48;-3.20;99.90
37844;DHT22;63793;57.632;18.292;2023-12-04T10:08:15;-3.20;99.90
37844;DHT22;63793;57.632;18.292;2023-12-04T10:10:43;-3.20;99.90
37844;DHT22;63793;57.632;18.292;2023-12-04T10:13:11;-3.30;99.90
37844;DHT22;63793;57.632;18.292;2023-12-04T10:15:48;-3.30;99.90
37844;DHT22;63793;57.632;18.292;2023-12-04T10:18:27;-3.30;99.90
37844;DHT22;63793;57.632;18.292;2023-12-04T10:20:57;-3.40;99.90
37844;DHT22;63793;57.632;18.292;2023-12-04T10:23:43;-3.40;99.90
37844;DHT22;63793;57.632;18.292;2023-12-04T10:26:10;-3.30;99.90
37844;DHT22;63793;57.632;18.292;2023-12-04T11:35:18;-3.70;99.90
37844;DHT22;63793;57.632;18.292;2023-12-04T11:37:46;-3.60;99.90
37844;DHT22;63793;57.632;18.292;2023-12-04T11:40:16;-3.60;99.90
37844;DHT22;63793;57.632;18.292;2023-12-04T11:42:43;-3.70;99.90
37844;DHT22;63793;57.632;18.292;2023-12-04T11:45:10;-3.70;99.90
37844;DHT22;63793;57.632;18.292;2023-12-04T11:50:17;-3.70;99.90
37844;DHT22;63793;57.632;18.292;2023-12-04T11:52:45;-3.70;99.90
37844;DHT22;63793;57.632;18.292;2023-12-04T11:55:22;-3.70;99.90
37844;DHT22;63793;57.632;18.292;2023-12-04T11:57:50;-3.70;99.90
37844;DHT22;63793;57.632;18.292;2023-12-04T12:05:36;-3.70;99.90
37844;DHT22;63793;57.632;18.292;2023-12-04T12:08:07;-3.70;99.90
37844;DHT22;63793;57.632;18.292;2023-12-04T12:10:35;-3.70;99.90
37844;DHT22;63793;57.632;18.292;2023-12-04T12:13:02;-3.70;99.90
37844;DHT22;63793;57.632;18.292;2023-12-04T12:15:29;-3.70;99.90
37844;DHT22;63793;57.632;18.292;2023-12-04T12:17:56;-3.70;99.90
37844;DHT22;63793;57.632;18.292;2023-12-04T12:20:23;-3.70;99.90
37844;DHT22;63793;57.632;18.292;2023-12-04T12:22:50;-3.70;99.90
37844;DHT22;63793;57.632;18.292;2023-12-04T12:25:18;-3.70;99.90
37844;DHT22;63793;57.632;18.292;2023-12-04T12:27:45;-3.80;99.90
37844;DHT22;63793;57.632;18.292;2023-12-04T12:30:12;-3.80;99.90
37844;DHT22;63793;57.632;18.292;2023-12-04T12:32:40;-3.80;99.90
37844;DHT22;63793;57.632;18.292;2023-12-04T12:35:07;-3.80;99.90
37844;DHT22;63793;57.632;18.292;2023-12-04T12:37:38;-3.70;99.90
37844;DHT22;63793;57.632;18.292;2023-12-04T12:40:06;-3.70;99.90
37844;DHT22;63793;57.632;18.292;2023-12-04T12:42:36;-3.70;99.90
37844;DHT22;63793;57.632;18.292;2023-12-04T12:45:05;-3.60;99.90
37844;DHT22;63793;57.632;18.292;2023-12-04T12:47:32;-3.60;99.90
37844;DHT22;63793;57.632;18.292;2023-12-04T12:50:00;-3.60;99.90
37844;DHT22;63793;57.632;18.292;2023-12-04T12:52:27;-3.50;99.90
37844;DHT22;63793;57.632;18.292;2023-12-04T12:54:54;-3.50;99.90
37844;DHT22;63793;57.632;18.292;2023-12-04T12:57:21;-3.50;99.90
37844;DHT22;63793;57.632;18.292;2023-12-04T12:59:48;-3.40;99.90
37844;DHT22;63793;57.632;18.292;2023-12-04T13:02:15;-3.50;99.90
37844;DHT22;63793;57.632;18.292;2023-12-04T13:04:43;-3.40;99.90
37844;DHT22;63793;57.632;18.292;2023-12-04T13:07:11;-3.30;99.90
37844;DHT22;63793;57.632;18.292;2023-12-04T13:09:38;-3.30;99.90
37844;DHT22;63793;57.632;18.292;2023-12-04T13:12:06;-3.30;99.90
37844;DHT22;63793;57.632;18.292;2023-12-04T13:14:33;-3.30;99.90
37844;DHT22;63793;57.632;18.292;2023-12-04T13:17:01;-3.30;99.90
37844;DHT22;63793;57.632;18.292;2023-12-04T13:19:28;-3.30;99.90
37844;DHT22;63793;57.632;18.292;2023-12-04T13:21:55;-3.30;99.90
37844;DHT22;63793;57.632;18.292;2023-12-04T13:24:22;-3.20;99.90
37844;DHT22;63793;57.632;18.292;2023-12-04T13:26:49;-3.10;99.90
37844;DHT22;63793;57.632;18.292;2023-12-04T13:29:15;-3.10;99.90
37844;DHT22;63793;57.632;18.292;2023-12-04T13:31:44;-3.10;99.90
37844;DHT22;63793;57.632;18.292;2023-12-04T13:34:13;-3.10;99.90
37844;DHT22;63793;57.632;18.292;2023-12-04T13:36:40;-3.00;99.90
37844;DHT22;63793;57.632;18.292;2023-12-04T13:39:07;-3.00;99.90
37844;DHT22;63793;57.632;18.292;2023-12-04T13:41:43;-3.00;99.90
37844;DHT22;63793;57.632;18.292;2023-12-04T13:44:29;-3.00;99.90
37844;DHT22;63793;57.632;18.292;2023-12-04T13:46:56;-3.00;99.90
37844;DHT22;63793;57.632;18.292;2023-12-04T13:49:23;-3.00;99.90
37844;DHT22;63793;57.632;18.292;2023-12-04T13:51:49;-2.90;99.90
37844;DHT22;63793;57.632;18.292;2023-12-04T13:54:16;-2.90;99.90
37844;DHT22;63793;57.632;18.292;2023-12-04T13:56:48;-2.90;99.90
37844;DHT22;63793;57.632;18.292;2023-12-04T13:59:22;-2.80;99.90
37844;DHT22;63793;57.632;18.292;2023-12-04T14:01:50;-2.80;99.90
37844;DHT22;63793;57.632;18.292;2023-12-04T14:04:18;-2.80;99.90
37844;DHT22;63793;57.632;18.292;2023-12-04T14:06:46;-2.80;99.90
37844;DHT22;63793;57.632;18.292;2023-12-04T14:09:13;-2.80;99.90
37844;DHT22;63793;57.632;18.292;2023-12-04T14:11:43;-2.80;99.90
37844;DHT22;63793;57.632;18.292;2023-12-04T14:14:11;-2.80;99.90
37844;DHT22;63793;57.632;18.292;2023-12-04T14:16:39;-2.70;99.90
37844;DHT22;63793;57.632;18.292;2023-12-04T14:19:07;-2.70;99.90
37844;DHT22;63793;57.632;18.292;2023-12-04T14:21:34;-2.70;99.90
37844;DHT22;63793;57.632;18.292;2023-12-04T14:24:02;-2.60;99.90
37844;DHT22;63793;57.632;18.292;2023-12-04T14:26:29;-2.60;99.90
37844;DHT22;63793;57.632;18.292;2023-12-04T14:28:56;-2.60;99.90
37844;DHT22;63793;57.632;18.292;2023-12-04T14:31:24;-2.60;99.90
37844;DHT22;63793;57.632;18.292;2023-12-04T14:33:52;-2.50;99.90
37844;DHT22;63793;57.632;18.292;2023-12-04T14:36:20;-2.50;99.90
37844;DHT22;63793;57.632;18.292;2023-12-04T14:38:47;-2.50;99.90
37844;DHT22;63793;57.632;18.292;2023-12-04T14:41:15;-2.50;99.90
37844;DHT22;63793;57.632;18.292;2023-12-04T14:43:42;-2.50;99.90
37844;DHT22;63793;57.632;18.292;2023-12-04T14:46:09;-2.50;99.90
37844;DHT22;63793;57.632;18.292;2023-12-04T14:48:37;-2.50;99.90
37844;DHT22;63793;57.632;18.292;2023-12-04T14:51:06;-2.40;99.90
37844;DHT22;63793;57.632;18.292;2023-12-04T14:53:33;-2.40;99.90
37844;DHT22;63793;57.632;18.292;2023-12-04T14:56:11;-2.40;99.90
37844;DHT22;63793;57.632;18.292;2023-12-04T14:59:01;-2.40;99.90
37844;DHT22;63793;57.632;18.292;2023-12-04T15:01:46;-2.40;99.90
37844;DHT22;63793;57.632;18.292;2023-12-04T15:04:32;-2.40;99.90
37844;DHT22;63793;57.632;18.292;2023-12-04T15:07:18;-2.30;99.90
37844;DHT22;63793;57.632;18.292;2023-12-04T15:09:48;-2.30;99.90
37844;DHT22;63793;57.632;18.292;2023-12-04T15:12:53;-2.20;99.90
37844;DHT22;63793;57.632;18.292;2023-12-04T15:15:38;-2.20;99.90
37844;DHT22;63793;57.632;18.292;2023-12-04T15:18:28;-2.20;99.90
37844;DHT22;63793;57.632;18.292;2023-12-04T15:21:04;-2.20;99.90
37844;DHT22;63793;57.632;18.292;2023-12-04T15:23:32;-2.20;99.90
37844;DHT22;63793;57.632;18.292;2023-12-04T15:25:59;-2.20;99.90
37844;DHT22;63793;57.632;18.292;2023-12-04T15:28:26;-2.20;99.90
37844;DHT22;63793;57.632;18.292;2023-12-04T15:30:54;-2.20;99.90
37844;DHT22;63793;57.632;18.292;2023-12-04T15:33:24;-2.10;99.90
37844;DHT22;63793;57.632;18.292;2023-12-04T15:35:54;-2.10;99.90
37844;DHT22;63793;57.632;18.292;2023-12-04T15:38:21;-2.00;99.90
37844;DHT22;63793;57.632;18.292;2023-12-04T15:40:48;-2.10;99.90
37844;DHT22;63793;57.632;18.292;2023-12-04T15:43:15;-2.10;99.90
37844;DHT22;63793;57.632;18.292;2023-12-04T15:45:43;-2.00;99.90
37844;DHT22;63793;57.632;18.292;2023-12-04T15:48:10;-2.00;99.90
37844;DHT22;63793;57.632;18.292;2023-12-04T15:50:38;-2.00;99.90
37844;DHT22;63793;57.632;18.292;2023-12-04T15:53:05;-2.00;99.90
37844;DHT22;63793;57.632;18.292;2023-12-04T15:55:31;-1.90;99.90
37844;DHT22;63793;57.632;18.292;2023-12-04T15:57:58;-1.90;99.90
37844;DHT22;63793;57.632;18.292;2023-12-04T16:00:26;-1.90;99.90
37844;DHT22;63793;57.632;18.292;2023-12-04T16:02:53;-1.90;99.90
37844;DHT22;63793;57.632;18.292;2023-12-04T16:05:20;-1.90;99.90
37844;DHT22;63793;57.632;18.292;2023-12-04T16:07:47;-1.90;99.90
37844;DHT22;63793;57.632;18.292;2023-12-04T16:10:15;-1.90;99.90
37844;DHT22;63793;57.632;18.292;2023-12-04T16:12:42;-1.90;99.90
37844;DHT22;63793;57.632;18.292;2023-12-04T16:15:09;-1.90;99.90
37844;DHT22;63793;57.632;18.292;2023-12-04T16:17:37;-1.90;99.90
37844;DHT22;63793;57.632;18.292;2023-12-04T16:20:07;-1.90;99.90
37844;DHT22;63793;57.632;18.292;2023-12-04T16:22:41;-1.90;99.90
37844;DHT22;63793;57.632;18.292;2023-12-04T16:25:10;-1.80;99.90
37844;DHT22;63793;57.632;18.292;2023-12-04T16:27:38;-1.90;99.90
37844;DHT22;63793;57.632;18.292;2023-12-04T16:30:06;-1.90;99.90
37844;DHT22;63793;57.632;18.292;2023-12-04T16:32:33;-1.90;99.90
37844;DHT22;63793;57.632;18.292;2023-12-04T16:35:00;-1.80;99.90
37844;DHT22;63793;57.632;18.292;2023-12-04T16:37:28;-1.80;99.90
37844;DHT22;63793;57.632;18.292;2023-12-04T16:39:55;-1.90;99.90
37844;DHT22;63793;57.632;18.292;2023-12-04T16:42:22;-1.90;99.90
37844;DHT22;63793;57.632;18.292;2023-12-04T16:44:49;-1.80;99.90
37844;DHT22;63793;57.632;18.292;2023-12-04T16:47:15;-1.80;99.90
37844;DHT22;63793;57.632;18.292;2023-12-04T16:49:42;-1.80;99.90
37844;DHT22;63793;57.632;18.292;2023-12-04T16:52:09;-1.80;99.90
37844;DHT22;63793;57.632;18.292;2023-12-04T16:54:41;-1.80;99.90
37844;DHT22;63793;57.632;18.292;2023-12-04T16:57:08;-1.80;99.90
37844;DHT22;63793;57.632;18.292;2023-12-04T16:59:36;-1.80;99.90
37844;DHT22;63793;57.632;18.292;2023-12-04T17:02:04;-1.80;99.90
37844;DHT22;63793;57.632;18.292;2023-12-04T17:04:32;-1.80;99.90
37844;DHT22;63793;57.632;18.292;2023-12-04T17:06:59;-1.80;99.90
37844;DHT22;63793;57.632;18.292;2023-12-04T17:09:27;-1.80;99.90
37844;DHT22;63793;57.632;18.292;2023-12-04T17:11:54;-1.80;99.90
37844;DHT22;63793;57.632;18.292;2023-12-04T17:14:21;-1.70;99.90
37844;DHT22;63793;57.632;18.292;2023-12-04T17:16:50;-1.70;99.90
37844;DHT22;63793;57.632;18.292;2023-12-04T17:19:17;-1.70;99.90
37844;DHT22;63793;57.632;18.292;2023-12-04T17:21:44;-1.80;99.90
37844;DHT22;63793;57.632;18.292;2023-12-04T17:24:10;-1.80;99.90
37844;DHT22;63793;57.632;18.292;2023-12-04T17:26:37;-1.70;99.90
37844;DHT22;63793;57.632;18.292;2023-12-04T17:29:04;-1.70;99.90
37844;DHT22;63793;57.632;18.292;2023-12-04T17:31:31;-1.70;99.90
37844;DHT22;63793;57.632;18.292;2023-12-04T17:33:58;-1.70;99.90
37844;DHT22;63793;57.632;18.292;2023-12-04T17:36:25;-1.70;99.90
37844;DHT22;63793;57.632;18.292;2023-12-04T17:38:52;-1.60;99.90
37844;DHT22;63793;57.632;18.292;2023-12-04T17:41:18;-1.60;99.90
37844;DHT22;63793;57.632;18.292;2023-12-04T17:43:45;-1.60;99.90